createdAt,value
2022-09-18T05:14:30.001Z,96943.06
2022-09-18T05:17:03.499Z,96938.41
2022-09-18T05:19:36.747Z,96942.47
2022-09-18T05:22:15.726Z,96936.78
2022-09-18T05:24:48.304Z,96950.66
2022-09-18T05:27:16.030Z,96941.47
2022-09-18T05:29:44.341Z,96949.47
2022-09-18T05:32:20.347Z,96944.22
2022-09-18T05:34:50.117Z,96944.44
2022-09-18T05:37:18.845Z,96951.06
2022-09-18T05:39:50.801Z,96962.28
2022-09-18T05:42:18.635Z,96954.56
2022-09-18T05:44:46.244Z,96955.00
2022-09-18T05:47:19.377Z,96960.28
2022-09-18T05:49:47.101Z,96955.59
2022-09-18T05:52:14.969Z,96962.69
2022-09-18T05:54:42.967Z,96967.16
2022-09-18T05:57:11.012Z,96959.63
2022-09-18T05:59:38.790Z,96962.06
2022-09-18T06:02:06.932Z,96961.03
2022-09-18T06:04:55.185Z,96963.06
2022-09-18T06:07:23.917Z,96963.47
2022-09-18T06:09:52.078Z,96950.78
2022-09-18T06:12:19.713Z,96963.72
2022-09-18T06:14:47.515Z,96969.66
2022-09-18T06:17:16.449Z,96978.34
2022-09-18T06:19:45.688Z,96960.22
2022-09-18T06:22:14.500Z,96973.97
2022-09-18T06:24:43.458Z,96979.44
2022-09-18T06:27:14.726Z,96979.03
2022-09-18T06:29:43.508Z,96984.84
2022-09-18T06:32:17.534Z,96977.09
2022-09-18T06:34:45.273Z,96981.88
2022-09-18T06:37:16.391Z,96983.53
2022-09-18T06:39:44.463Z,96986.91
2022-09-18T06:42:34.797Z,96980.84
2022-09-18T06:45:34.631Z,96990.06
2022-09-18T06:48:02.921Z,96996.03
2022-09-18T06:50:31.340Z,97001.97
2022-09-18T06:53:11.526Z,97005.66
2022-09-18T06:55:43.253Z,97009.06
2022-09-18T06:58:11.038Z,97005.88
2022-09-18T07:00:38.848Z,97013.97
2022-09-18T07:03:07.810Z,97019.16
2022-09-18T07:05:41.255Z,97019.03
2022-09-18T07:08:09.941Z,97021.09
2022-09-18T07:10:39.528Z,97021.94
2022-09-18T07:13:07.345Z,97034.34
2022-09-18T07:15:45.930Z,97032.63
2022-09-18T07:18:14.181Z,97029.88
2022-09-18T07:20:41.852Z,97033.88
2022-09-18T07:23:09.685Z,97047.34
2022-09-18T07:25:43.285Z,97055.22
2022-09-18T07:28:11.260Z,97046.81
2022-09-18T07:30:46.621Z,97053.94
2022-09-18T07:33:15.670Z,97056.84
2022-09-18T07:35:48.003Z,97058.03
2022-09-18T07:38:18.159Z,97062.09
2022-09-18T07:40:55.299Z,97057.59
2022-09-18T07:43:34.115Z,97065.75
2022-09-18T07:46:02.951Z,97056.09
2022-09-18T07:48:34.800Z,97064.00
2022-09-18T07:51:16.803Z,97052.31
2022-09-18T07:53:49.694Z,97064.38
2022-09-18T07:56:26.265Z,97069.13
2022-09-18T07:58:56.104Z,97070.53
2022-09-18T08:01:28.097Z,97059.41
2022-09-18T08:03:58.268Z,97065.78
2022-09-18T08:06:45.378Z,97071.44
2022-09-18T08:09:36.537Z,97073.84
2022-09-18T08:12:11.878Z,97068.03
2022-09-18T08:14:54.819Z,97067.88
2022-09-18T08:17:46.453Z,97070.06
2022-09-18T08:20:36.278Z,97073.06
2022-09-18T08:23:20.452Z,97079.03
2022-09-18T08:25:48.999Z,97082.63
2022-09-18T08:28:16.852Z,97067.97
2022-09-18T08:30:51.432Z,97078.38
2022-09-18T08:33:19.260Z,97091.16
2022-09-18T08:35:47.263Z,97090.47
2022-09-18T08:38:27.104Z,97091.34
2022-09-18T08:41:41.535Z,97093.00
2022-09-18T08:44:14.044Z,97099.00
2022-09-18T08:46:50.752Z,97104.34
2022-09-18T08:49:57.970Z,97097.59
2022-09-18T08:52:35.199Z,97106.38
2022-09-18T08:55:23.474Z,97107.16
2022-09-18T08:58:08.838Z,97114.66
2022-09-18T09:00:42.291Z,97112.31
2022-09-18T09:03:42.850Z,97097.50
2022-09-18T09:06:26.078Z,97089.53
2022-09-18T09:09:14.961Z,97095.38
2022-09-18T09:11:51.616Z,97094.44
2022-09-18T09:14:55.562Z,97099.72
2022-09-18T09:17:38.988Z,97098.66
2022-09-18T09:20:35.710Z,97104.47
2022-09-18T09:23:09.103Z,97098.47
2022-09-18T09:26:03.325Z,97113.34
2022-09-18T09:29:06.842Z,97116.09
2022-09-18T09:31:58.573Z,97097.16
2022-09-18T09:34:58.586Z,97094.50
2022-09-18T09:37:42.585Z,97101.84
2022-09-18T09:40:37.909Z,97097.47
2022-09-18T09:43:10.072Z,97104.31
2022-09-18T09:45:48.669Z,97107.31
2022-09-18T09:48:29.234Z,97105.50
2022-09-18T09:51:01.986Z,97101.66
2022-09-18T09:53:30.902Z,97104.72
2022-09-18T09:56:38.519Z,97110.19
2022-09-18T09:59:24.991Z,97108.66
2022-09-18T10:02:54.739Z,97098.91
2022-09-18T10:05:57.329Z,97097.78
2022-09-18T10:08:59.933Z,97102.59
2022-09-18T10:11:28.244Z,97107.94
2022-09-18T10:14:11.704Z,97103.38
2022-09-18T10:16:42.554Z,97094.50
2022-09-18T10:19:18.048Z,97101.94
2022-09-18T10:21:46.020Z,97119.47
2022-09-18T10:24:27.533Z,97113.72
2022-09-18T10:27:14.814Z,97129.66
2022-09-18T10:29:43.744Z,97122.03
2022-09-18T10:32:38.375Z,97116.53
2022-09-18T10:35:30.663Z,97132.09
2022-09-18T10:37:59.426Z,97109.72
2022-09-18T10:40:40.301Z,97125.69
2022-09-18T10:43:17.831Z,97107.94
2022-09-18T10:45:53.341Z,97112.91
2022-09-18T10:48:36.561Z,97119.78
2022-09-18T10:51:04.673Z,97120.19
2022-09-18T10:53:46.679Z,97123.03
2022-09-18T10:56:30.864Z,97110.78
2022-09-18T10:59:13.971Z,97125.47
2022-09-18T11:01:44.787Z,97108.22
2022-09-18T11:04:16.932Z,97114.75
2022-09-18T11:06:45.280Z,97125.00
2022-09-18T11:09:36.659Z,97128.47
2022-09-18T11:12:05.207Z,97119.97
2022-09-18T11:14:44.488Z,97122.59
2022-09-18T11:17:30.651Z,97120.84
2022-09-18T11:20:00.297Z,97118.16
2022-09-18T11:22:44.713Z,97115.84
2022-09-18T11:25:33.240Z,97116.31
2022-09-18T11:28:31.133Z,97127.44
2022-09-18T11:31:10.179Z,97116.63
2022-09-18T11:33:57.889Z,97120.09
2022-09-18T11:36:32.406Z,97117.06
2022-09-18T11:39:02.704Z,97112.53
2022-09-18T11:41:35.993Z,97126.09
2022-09-18T11:44:05.249Z,97118.50
2022-09-18T11:47:08.398Z,97118.41
2022-09-18T11:49:58.516Z,97123.88
2022-09-18T11:52:30.938Z,97117.56
2022-09-18T11:55:08.658Z,97119.53
2022-09-18T11:57:58.845Z,97122.03
2022-09-18T12:00:31.867Z,97116.13
2022-09-18T12:03:17.964Z,97106.22
2022-09-18T12:05:53.733Z,97105.59
2022-09-18T12:08:41.620Z,97114.56
2022-09-18T12:11:31.982Z,97096.16
2022-09-18T12:14:27.798Z,97102.63
2022-09-18T12:17:23.230Z,97105.00
2022-09-18T12:20:00.587Z,97098.75
2022-09-18T12:22:31.525Z,97093.94
2022-09-18T12:25:01.148Z,97093.03
2022-09-18T12:28:00.807Z,97099.13
2022-09-18T12:30:53.308Z,97089.69
2022-09-18T12:33:42.620Z,97090.72
2022-09-18T12:36:25.856Z,97089.69
2022-09-18T12:39:25.392Z,97089.13
2022-09-18T12:42:17.812Z,97076.94
2022-09-18T12:44:57.611Z,97093.22
2022-09-18T12:48:00.715Z,97080.81
2022-09-18T12:50:53.172Z,97089.44
2022-09-18T12:53:27.781Z,97083.63
2022-09-18T12:56:23.393Z,97081.84
2022-09-18T12:58:57.478Z,97092.22
2022-09-18T13:02:00.746Z,97088.22
2022-09-18T13:04:35.983Z,97089.25
2022-09-18T13:07:22.282Z,97093.41
2022-09-18T13:10:25.643Z,97094.59
2022-09-18T13:13:31.806Z,97087.06
2022-09-18T13:16:01.218Z,97103.97
2022-09-18T13:18:56.672Z,97102.50
2022-09-18T13:21:26.251Z,97097.81
2022-09-18T13:23:54.320Z,97105.50
2022-09-18T13:26:23.405Z,97101.22
2022-09-18T13:28:51.223Z,97105.97
2022-09-18T13:31:31.393Z,97090.06
2022-09-18T13:34:05.627Z,97094.72
2022-09-18T13:36:36.354Z,97111.34
2022-09-18T13:39:07.914Z,97098.34
2022-09-18T13:41:47.382Z,97112.69
2022-09-18T13:44:26.509Z,97108.28
2022-09-18T13:46:56.101Z,97092.97
2022-09-18T13:49:34.323Z,97100.84
2022-09-18T13:52:27.040Z,97094.41
2022-09-18T13:55:13.452Z,97092.97
2022-09-18T13:57:41.556Z,97100.78
2022-09-18T14:00:21.592Z,97094.25
2022-09-18T14:02:50.304Z,97100.53
2022-09-18T14:05:33.271Z,97104.66
2022-09-18T14:08:07.925Z,97112.25
2022-09-18T14:10:59.469Z,97115.94
2022-09-18T14:13:36.975Z,97098.72
2022-09-18T14:16:20.265Z,97113.56
2022-09-18T14:18:48.166Z,97106.66
2022-09-18T14:21:18.659Z,97116.91
2022-09-18T14:23:46.198Z,97109.66
2022-09-18T14:26:29.537Z,97106.63
2022-09-18T14:29:13.197Z,97114.19
2022-09-18T14:31:47.332Z,97112.88
2022-09-18T14:34:29.216Z,97116.75
2022-09-18T14:37:00.221Z,97109.16
2022-09-18T14:39:32.541Z,97113.13
2022-09-18T14:42:05.575Z,97116.66
2022-09-18T14:44:33.347Z,97117.72
2022-09-18T14:47:05.673Z,97111.97
2022-09-18T14:49:46.540Z,97116.97
2022-09-18T14:52:31.977Z,97114.41
2022-09-18T14:55:08.430Z,97115.69
2022-09-18T14:57:42.554Z,97114.75
2022-09-18T15:00:20.345Z,97118.56
2022-09-18T15:02:49.756Z,97116.75
2022-09-18T15:05:18.896Z,97110.97
2022-09-18T15:08:02.486Z,97105.78
2022-09-18T15:10:30.265Z,97110.53
2022-09-18T15:12:57.855Z,97102.69
2022-09-18T15:15:29.517Z,97109.47
2022-09-18T15:17:57.513Z,97101.41
2022-09-18T15:20:26.160Z,97100.59
2022-09-18T15:22:54.273Z,97092.44
2022-09-18T15:25:25.400Z,97097.13
2022-09-18T15:27:52.990Z,97097.13
2022-09-18T15:30:22.243Z,97087.31
2022-09-18T15:33:04.345Z,97092.25
2022-09-18T15:35:36.702Z,97092.81
2022-09-18T15:38:14.160Z,97088.31
2022-09-18T15:40:43.897Z,97081.84
2022-09-18T15:43:43.488Z,97078.22
2022-09-18T15:46:12.787Z,97085.94
2022-09-18T15:48:51.027Z,97086.22
2022-09-18T15:51:24.439Z,97080.78
2022-09-18T15:54:10.621Z,97094.16
2022-09-18T15:56:41.202Z,97084.47
2022-09-18T15:59:37.148Z,97085.81
2022-09-18T16:02:32.045Z,97094.59
2022-09-18T16:05:14.996Z,97084.91
2022-09-18T16:07:52.559Z,97097.34
2022-09-18T16:10:35.474Z,97093.47
2022-09-18T16:13:07.101Z,97094.84
2022-09-18T16:15:35.703Z,97098.91
2022-09-18T16:18:16.084Z,97109.56
2022-09-18T16:20:49.910Z,97109.25
2022-09-18T16:23:21.592Z,97105.63
2022-09-18T16:26:06.194Z,97106.16
2022-09-18T16:28:36.218Z,97109.69
2022-09-18T16:31:04.582Z,97110.25
2022-09-18T16:33:33.781Z,97104.56
2022-09-18T16:36:07.999Z,97113.97
2022-09-18T16:38:35.925Z,97110.59
2022-09-18T16:41:03.587Z,97109.25
2022-09-18T16:43:31.449Z,97097.31
2022-09-18T16:45:59.114Z,97108.53
2022-09-18T16:48:26.919Z,97106.81
2022-09-18T16:50:54.686Z,97106.66
2022-09-18T16:53:22.433Z,97110.53
2022-09-18T16:55:52.260Z,97115.66
2022-09-18T16:58:19.985Z,97122.00
2022-09-18T17:00:48.309Z,97109.00
2022-09-18T17:03:18.144Z,97106.25
2022-09-18T17:05:46.116Z,97112.63
2022-09-18T17:08:14.834Z,97115.50
2022-09-18T17:10:45.160Z,97112.09
2022-09-18T17:13:13.435Z,97122.03
2022-09-18T17:15:41.224Z,97120.81
2022-09-18T17:18:09.217Z,97128.94
2022-09-18T17:20:37.542Z,97124.69
2022-09-18T17:23:05.176Z,97133.47
2022-09-18T17:25:33.102Z,97129.84
2022-09-18T17:28:01.133Z,97140.78
2022-09-18T17:30:28.661Z,97139.56
2022-09-18T17:32:56.867Z,97138.38
2022-09-18T17:35:25.377Z,97141.22
2022-09-18T17:37:53.325Z,97150.13
2022-09-18T17:40:21.038Z,97145.66
2022-09-18T17:42:48.852Z,97150.53
2022-09-18T17:45:16.580Z,97149.34
2022-09-18T17:47:44.330Z,97158.22
2022-09-18T17:50:12.428Z,97162.09
2022-09-18T17:52:40.303Z,97157.81
2022-09-18T17:55:09.061Z,97171.63
2022-09-18T17:57:38.302Z,97168.38
2022-09-18T18:00:07.001Z,97178.09
2022-09-18T18:02:39.852Z,97170.81
2022-09-18T18:05:07.848Z,97171.22
2022-09-18T18:07:35.403Z,97175.25
2022-09-18T18:10:03.249Z,97180.94
